createdAt,value
2019-02-21T00:00:35.786Z,8.40
2019-02-21T00:03:04.441Z,6.77
2019-02-21T00:05:33.197Z,5.70
2019-02-21T00:08:01.785Z,5.77
2019-02-21T00:10:30.373Z,8.93
2019-02-21T00:12:58.966Z,9.17
2019-02-21T00:15:27.535Z,11.67
2019-02-21T00:17:56.126Z,9.43
2019-02-21T00:20:24.701Z,10.13
2019-02-21T00:22:53.365Z,8.47
2019-02-21T00:25:21.853Z,6.83
2019-02-21T00:27:50.453Z,6.70
2019-02-21T00:30:19.033Z,10.93
2019-02-21T00:32:47.623Z,5.80
2019-02-21T00:35:16.206Z,10.13
2019-02-21T00:37:44.797Z,9.67
2019-02-21T00:40:13.365Z,6.90
2019-02-21T00:42:41.970Z,10.07
2019-02-21T00:45:10.673Z,8.53
2019-02-21T00:47:39.251Z,12.07
2019-02-21T00:50:07.981Z,11.47
2019-02-21T00:52:36.554Z,9.57
2019-02-21T00:55:06.290Z,12.83
2019-02-21T00:57:34.866Z,10.83
2019-02-21T01:00:03.630Z,11.93
2019-02-21T01:02:32.201Z,11.87
2019-02-21T01:05:00.801Z,15.63
2019-02-21T01:07:29.517Z,16.23
2019-02-21T01:09:58.116Z,15.47
2019-02-21T01:12:26.685Z,14.60
2019-02-21T01:14:55.281Z,14.20
2019-02-21T01:17:23.879Z,12.90
2019-02-21T01:19:52.450Z,11.60
2019-02-21T01:22:21.033Z,17.67
2019-02-21T01:24:49.706Z,13.40
2019-02-21T01:27:18.270Z,11.97
2019-02-21T01:29:46.867Z,13.90
2019-02-21T01:32:15.504Z,13.33
2019-02-21T01:34:44.109Z,16.23
2019-02-21T01:37:12.710Z,9.13
2019-02-21T01:39:41.307Z,13.20
2019-02-21T01:42:09.884Z,13.37
2019-02-21T01:44:38.481Z,10.43
2019-02-21T01:47:07.059Z,13.30
2019-02-21T01:49:35.659Z,17.97
2019-02-21T01:52:04.250Z,11.27
2019-02-21T01:54:32.827Z,11.43
2019-02-21T01:57:01.402Z,12.27
2019-02-21T01:59:29.997Z,10.97
2019-02-21T02:01:58.569Z,11.73
2019-02-21T02:04:27.162Z,9.03
2019-02-21T02:06:56.007Z,12.63
2019-02-21T02:09:24.610Z,11.37
2019-02-21T02:11:53.187Z,13.33
2019-02-21T02:14:21.777Z,13.03
2019-02-21T02:16:50.343Z,8.90
2019-02-21T02:19:18.933Z,7.87
2019-02-21T02:21:47.504Z,8.70
2019-02-21T02:24:16.102Z,14.73
2019-02-21T02:26:44.672Z,13.27
2019-02-21T02:29:13.303Z,11.93
2019-02-21T02:31:42.053Z,12.87
2019-02-21T02:34:10.642Z,12.10
2019-02-21T02:36:39.209Z,14.70
2019-02-21T02:39:07.940Z,14.33
2019-02-21T02:41:36.512Z,14.93
2019-02-21T02:44:05.205Z,14.27
2019-02-21T02:46:33.760Z,11.93
2019-02-21T02:49:02.348Z,11.97
2019-02-21T02:51:30.912Z,9.67
2019-02-21T02:53:59.509Z,11.70
2019-02-21T02:56:28.080Z,16.60
2019-02-21T02:58:56.676Z,13.70
2019-02-21T03:01:34.422Z,12.27
2019-02-21T03:03:55.502Z,19.50
2019-02-21T03:06:24.076Z,11.90
2019-02-21T03:08:52.673Z,11.10
2019-02-21T03:11:21.235Z,10.70
2019-02-21T03:13:49.829Z,11.07
2019-02-21T03:16:18.423Z,11.70
2019-02-21T03:18:46.958Z,8.47
2019-02-21T03:21:15.548Z,8.10
2019-02-21T03:23:44.112Z,10.23
2019-02-21T03:26:12.705Z,12.67
2019-02-21T03:28:41.276Z,15.77
2019-02-21T03:31:09.872Z,9.87
2019-02-21T03:33:38.421Z,9.97
2019-02-21T03:36:07.021Z,12.00
2019-02-21T03:38:35.874Z,13.40
2019-02-21T03:41:04.574Z,12.43
2019-02-21T03:43:33.150Z,15.20
2019-02-21T03:46:01.738Z,15.83
2019-02-21T03:48:30.312Z,18.00
2019-02-21T03:50:58.912Z,18.03
2019-02-21T03:53:27.485Z,10.60
2019-02-21T03:55:56.132Z,8.97
2019-02-21T03:58:24.765Z,9.83
2019-02-21T04:00:53.356Z,18.73
2019-02-21T04:03:21.964Z,15.73
2019-02-21T04:05:50.528Z,15.13
2019-02-21T04:08:19.096Z,14.03
2019-02-21T04:10:47.743Z,12.30
2019-02-21T04:13:16.265Z,12.30
2019-02-21T04:15:44.920Z,10.53
2019-02-21T04:18:13.495Z,13.80
2019-02-21T04:20:42.100Z,15.17
2019-02-21T04:23:10.658Z,12.37
2019-02-21T04:25:39.247Z,13.37
2019-02-21T04:28:07.825Z,17.77
2019-02-21T04:30:36.417Z,19.77
2019-02-21T04:33:04.992Z,23.03
2019-02-21T04:35:33.588Z,14.30
2019-02-21T04:38:02.183Z,16.60
2019-02-21T04:40:30.752Z,20.03
2019-02-21T04:42:59.328Z,18.43
2019-02-21T04:45:27.931Z,15.83
2019-02-21T04:47:56.502Z,21.70
2019-02-21T04:50:25.091Z,15.57
2019-02-21T04:52:53.665Z,14.83
2019-02-21T04:55:22.258Z,17.20
2019-02-21T04:57:50.832Z,13.80
2019-02-21T05:00:19.431Z,19.63
2019-02-21T05:02:48.005Z,17.37
2019-02-21T05:05:16.604Z,20.17
2019-02-21T05:07:45.178Z,22.83
2019-02-21T05:10:13.768Z,15.17
2019-02-21T05:12:42.344Z,18.57
2019-02-21T05:15:13.798Z,12.60
2019-02-21T05:17:41.144Z,17.50
2019-02-21T05:20:09.744Z,16.47
2019-02-21T05:22:38.312Z,10.00
2019-02-21T05:25:06.981Z,16.00
2019-02-21T05:27:35.612Z,10.97
2019-02-21T05:30:06.004Z,10.67
2019-02-21T05:32:41.241Z,13.83
2019-02-21T05:35:11.263Z,11.87
2019-02-21T05:37:47.956Z,9.13
2019-02-21T05:40:24.052Z,18.63
2019-02-21T05:42:54.278Z,13.20
2019-02-21T05:45:27.188Z,11.97
2019-02-21T05:48:06.158Z,16.83
2019-02-21T05:50:45.071Z,10.87
2019-02-21T05:53:31.837Z,17.93
2019-02-21T05:56:02.072Z,16.13
2019-02-21T05:58:32.288Z,22.77
2019-02-21T06:01:18.813Z,13.70
2019-02-21T06:03:51.436Z,17.93
2019-02-21T06:06:33.966Z,23.17
2019-02-21T06:09:10.338Z,14.17
2019-02-21T06:11:58.841Z,15.40
2019-02-21T06:14:45.265Z,15.23
2019-02-21T06:17:15.502Z,13.20
2019-02-21T06:19:51.613Z,11.93
2019-02-21T06:22:30.782Z,9.93
2019-02-21T06:25:00.993Z,8.03
2019-02-21T06:27:40.431Z,9.80
2019-02-21T06:30:10.778Z,8.23
2019-02-21T06:32:40.854Z,8.13
2019-02-21T06:35:10.474Z,6.40
2019-02-21T06:37:39.060Z,6.50
2019-02-21T06:40:08.061Z,7.90
2019-02-21T06:42:36.653Z,7.50
2019-02-21T06:45:06.289Z,9.17
2019-02-21T06:47:34.881Z,10.53
2019-02-21T06:50:03.819Z,11.40
2019-02-21T06:52:32.405Z,10.37
2019-02-21T06:55:02.269Z,13.00
2019-02-21T06:57:31.272Z,16.90
2019-02-21T06:59:59.845Z,16.93
2019-02-21T07:02:28.436Z,18.83
2019-02-21T07:04:57.010Z,21.10
2019-02-21T07:07:25.597Z,18.63
2019-02-21T07:09:54.164Z,20.30
2019-02-21T07:12:22.755Z,20.70
2019-02-21T07:14:51.328Z,16.90
2019-02-21T07:17:19.919Z,22.30
2019-02-21T07:19:48.489Z,14.00
2019-02-21T07:22:18.115Z,18.30
2019-02-21T07:24:48.944Z,18.70
2019-02-21T07:27:17.537Z,19.57
2019-02-21T07:29:46.104Z,18.73
2019-02-21T07:32:14.701Z,16.27
2019-02-21T07:34:43.267Z,17.23
2019-02-21T07:37:18.506Z,17.47
2019-02-21T07:39:42.089Z,16.67
2019-02-21T07:42:10.688Z,13.83
2019-02-21T07:44:39.262Z,18.97
2019-02-21T07:47:07.864Z,16.87
2019-02-21T07:49:36.429Z,13.30
2019-02-21T07:52:05.608Z,12.60
2019-02-21T07:54:34.342Z,11.13
2019-02-21T07:57:02.897Z,12.93
2019-02-21T07:59:31.534Z,11.77
2019-02-21T08:02:00.133Z,12.17
2019-02-21T08:04:28.699Z,14.10
2019-02-21T08:06:57.288Z,16.43
2019-02-21T08:09:27.844Z,14.20
2019-02-21T08:11:56.099Z,16.70
2019-02-21T08:14:24.672Z,12.57
2019-02-21T08:16:53.303Z,19.03
2019-02-21T08:19:21.840Z,16.97
2019-02-21T08:21:50.483Z,18.03
2019-02-21T08:24:19.109Z,11.77
2019-02-21T08:26:47.703Z,13.83
2019-02-21T08:29:16.265Z,14.17
2019-02-21T08:31:44.865Z,14.43
2019-02-21T08:34:17.557Z,11.57
2019-02-21T08:36:46.161Z,15.70
2019-02-21T08:39:14.724Z,16.53
2019-02-21T08:41:43.320Z,17.97
2019-02-21T08:44:11.889Z,17.63
2019-02-21T08:46:40.487Z,18.73
2019-02-21T08:49:09.056Z,18.77
2019-02-21T08:51:37.655Z,17.53
2019-02-21T08:54:06.255Z,18.40
2019-02-21T08:56:34.822Z,16.57
2019-02-21T08:59:03.388Z,17.07
2019-02-21T09:01:31.985Z,14.97
2019-02-21T09:04:10.129Z,15.53
2019-02-21T09:06:30.881Z,13.50
2019-02-21T09:08:59.648Z,14.00
2019-02-21T09:11:28.222Z,16.00
2019-02-21T09:13:56.807Z,13.90
2019-02-21T09:16:25.385Z,12.43
2019-02-21T09:18:53.972Z,13.13
2019-02-21T09:21:22.554Z,13.83
2019-02-21T09:23:51.144Z,13.80
2019-02-21T09:26:21.591Z,12.07
2019-02-21T09:28:49.956Z,14.80
2019-02-21T09:31:18.528Z,14.40
2019-02-21T09:33:47.120Z,14.73
2019-02-21T09:36:15.688Z,11.17
2019-02-21T09:38:44.289Z,15.00
2019-02-21T09:41:12.856Z,15.03
2019-02-21T09:43:41.448Z,15.23
2019-02-21T09:46:10.089Z,14.20
2019-02-21T09:48:38.680Z,14.20
2019-02-21T09:51:07.301Z,14.37
2019-02-21T09:53:35.849Z,13.20
2019-02-21T09:56:04.421Z,11.47
2019-02-21T09:58:33.041Z,14.13
2019-02-21T10:01:01.616Z,13.80
2019-02-21T10:03:30.220Z,15.40
2019-02-21T10:05:58.805Z,15.50
2019-02-21T10:08:27.393Z,12.63
2019-02-21T10:10:56.132Z,13.03
2019-02-21T10:13:24.728Z,12.47
2019-02-21T10:15:53.298Z,11.27
2019-02-21T10:18:21.889Z,13.63
2019-02-21T10:20:50.452Z,11.93
2019-02-21T10:23:19.054Z,10.93
2019-02-21T10:25:47.620Z,12.20
2019-02-21T10:28:16.226Z,11.47
2019-02-21T10:30:44.792Z,12.53
2019-02-21T10:33:13.434Z,10.73
2019-02-21T10:35:41.973Z,11.00
2019-02-21T10:38:10.558Z,9.70
2019-02-21T10:40:39.139Z,11.30
2019-02-21T10:43:07.733Z,10.27
2019-02-21T10:45:47.098Z,11.27
2019-02-21T10:48:06.612Z,10.50
2019-02-21T10:50:35.181Z,9.80
2019-02-21T10:53:03.877Z,11.10
2019-02-21T10:55:32.424Z,9.00
2019-02-21T10:58:01.007Z,10.10
2019-02-21T11:00:30.513Z,9.20
2019-02-21T11:02:59.112Z,10.93
2019-02-21T11:05:27.677Z,9.43
2019-02-21T11:07:56.286Z,10.03
2019-02-21T11:10:29.306Z,11.23
2019-02-21T11:12:58.148Z,10.27
2019-02-21T11:15:26.780Z,11.63
2019-02-21T11:17:55.379Z,10.13
2019-02-21T11:20:24.139Z,12.93
2019-02-21T11:22:52.766Z,9.97
2019-02-21T11:25:21.431Z,10.67
2019-02-21T11:27:50.020Z,10.73
2019-02-21T11:30:22.233Z,10.80
2019-02-21T11:32:50.828Z,9.00
2019-02-21T11:35:19.400Z,8.57
2019-02-21T11:37:48.009Z,11.07
2019-02-21T11:40:17.532Z,10.17
2019-02-21T11:42:46.177Z,7.13
2019-02-21T11:45:19.383Z,10.77
2019-02-21T11:47:47.985Z,10.30
2019-02-21T11:50:17.793Z,10.13
2019-02-21T11:52:46.366Z,10.63
2019-02-21T11:55:18.053Z,10.40
2019-02-21T11:57:46.680Z,11.10
2019-02-21T12:00:20.324Z,11.60
2019-02-21T12:02:48.898Z,10.43
2019-02-21T12:05:19.546Z,9.50
2019-02-21T12:07:47.721Z,9.93
2019-02-21T12:10:16.313Z,11.13
2019-02-21T12:12:44.887Z,10.33
2019-02-21T12:15:14.834Z,10.20
2019-02-21T12:17:43.471Z,9.43
2019-02-21T12:20:16.880Z,11.27
2019-02-21T12:22:45.452Z,8.67
2019-02-21T12:25:21.830Z,8.87
2019-02-21T12:27:50.360Z,10.20
2019-02-21T12:30:19.800Z,9.03
2019-02-21T12:32:48.444Z,10.83
2019-02-21T12:35:28.821Z,10.50
2019-02-21T12:37:48.096Z,10.27
2019-02-21T12:40:19.103Z,11.70
2019-02-21T12:42:47.752Z,12.57
2019-02-21T12:45:18.488Z,15.23
2019-02-21T12:47:53.191Z,10.50
2019-02-21T12:50:17.320Z,10.67
2019-02-21T12:52:45.892Z,12.23
2019-02-21T12:55:26.469Z,12.50
2019-02-21T12:57:44.888Z,13.00
2019-02-21T13:00:18.869Z,14.53
2019-02-21T13:02:47.511Z,11.33
2019-02-21T13:05:16.171Z,12.57
2019-02-21T13:07:44.760Z,14.00
2019-02-21T13:10:15.693Z,14.47
2019-02-21T13:12:44.342Z,15.80
2019-02-21T13:15:14.617Z,13.00
2019-02-21T13:17:43.193Z,12.27
2019-02-21T13:20:13.127Z,14.50
2019-02-21T13:22:41.707Z,10.93
2019-02-21T13:25:17.876Z,11.80
2019-02-21T13:27:46.447Z,12.13
2019-02-21T13:30:16.725Z,13.47
2019-02-21T13:32:45.287Z,13.13
2019-02-21T13:35:14.442Z,14.00
2019-02-21T13:37:43.385Z,12.83
2019-02-21T13:40:16.912Z,12.20
2019-02-21T13:42:45.496Z,11.73
2019-02-21T13:45:17.448Z,12.97
2019-02-21T13:50:39.877Z,12.97
2019-02-21T13:53:08.453Z,11.53
2019-02-21T13:55:37.045Z,10.03
2019-02-21T13:58:05.628Z,10.43
2019-02-21T14:00:34.233Z,10.17
2019-02-21T14:03:02.797Z,9.93
2019-02-21T14:05:31.389Z,9.67
2019-02-21T14:07:59.967Z,13.97
2019-02-21T14:10:28.568Z,12.87
2019-02-21T14:12:57.140Z,10.73
2019-02-21T14:15:27.676Z,10.80
2019-02-21T14:17:56.248Z,12.20
2019-02-21T14:20:24.844Z,12.40
2019-02-21T14:22:53.418Z,8.93
2019-02-21T14:25:22.012Z,14.23
2019-02-21T14:27:50.596Z,10.30
2019-02-21T14:30:20.339Z,11.03
2019-02-21T14:32:48.979Z,10.07
2019-02-21T14:35:17.585Z,13.63
2019-02-21T14:37:46.160Z,13.33
2019-02-21T14:40:15.908Z,13.43
2019-02-21T14:42:44.545Z,12.13
2019-02-21T14:45:26.119Z,12.40
2019-02-21T14:47:54.693Z,13.77
2019-02-21T14:50:23.289Z,14.03
2019-02-21T14:52:51.860Z,11.50
2019-02-21T14:55:20.460Z,14.30
2019-02-21T14:57:49.034Z,12.33
2019-02-21T15:00:20.271Z,12.47
2019-02-21T15:02:48.984Z,12.70
2019-02-21T15:05:18.119Z,11.83
2019-02-21T15:07:46.693Z,11.77
2019-02-21T15:10:15.932Z,12.07
2019-02-21T15:12:44.506Z,12.73
2019-02-21T15:15:22.196Z,16.83
2019-02-21T15:17:50.937Z,12.77
2019-02-21T15:20:19.604Z,10.93
2019-02-21T15:22:48.176Z,11.57
2019-02-21T15:25:16.820Z,11.33
2019-02-21T15:27:45.366Z,12.03
2019-02-21T15:30:21.964Z,13.17
2019-02-21T15:32:50.544Z,10.20
2019-02-21T15:35:19.733Z,15.63
2019-02-21T15:37:48.516Z,12.17
2019-02-21T15:40:17.182Z,12.37
2019-02-21T15:42:45.756Z,12.17
2019-02-21T15:45:28.256Z,11.73
2019-02-21T15:47:56.837Z,12.83
2019-02-21T15:50:25.432Z,13.63
2019-02-21T15:52:55.745Z,14.57
2019-02-21T15:55:24.340Z,13.97
2019-02-21T15:58:03.207Z,17.00
2019-02-21T16:00:24.870Z,13.27
2019-02-21T16:02:53.449Z,15.27
2019-02-21T16:05:22.048Z,12.90
2019-02-21T16:07:50.629Z,15.10
2019-02-21T16:10:25.216Z,13.23
2019-02-21T16:12:53.888Z,15.13
2019-02-21T16:15:22.651Z,17.67
2019-02-21T16:17:51.224Z,14.03
2019-02-21T16:20:21.650Z,14.53
2019-02-21T16:22:50.205Z,14.83
2019-02-21T16:25:26.878Z,16.47
2019-02-21T16:27:55.864Z,16.43
2019-02-21T16:30:24.584Z,14.27
2019-02-21T16:32:53.161Z,15.30
2019-02-21T16:35:21.760Z,14.70
2019-02-21T16:37:50.344Z,15.57
2019-02-21T16:40:20.090Z,17.17
2019-02-21T16:42:52.100Z,13.10
2019-02-21T16:45:21.841Z,16.13
2019-02-21T16:47:50.479Z,15.57
2019-02-21T16:50:29.347Z,18.30
2019-02-21T16:52:49.311Z,19.27
2019-02-21T16:55:20.621Z,18.57
2019-02-21T16:57:49.204Z,16.43
2019-02-21T17:00:21.946Z,20.43
2019-02-21T17:02:50.516Z,14.57
2019-02-21T17:05:19.114Z,14.17
2019-02-21T17:07:47.695Z,16.87
2019-02-21T17:10:17.010Z,16.23
2019-02-21T17:12:45.621Z,18.13
2019-02-21T17:15:15.944Z,16.47
2019-02-21T17:17:44.529Z,16.10
2019-02-21T17:20:17.520Z,19.67
2019-02-21T17:22:46.121Z,18.23
2019-02-21T17:25:15.751Z,19.30
2019-02-21T17:27:45.484Z,16.90
2019-02-21T17:30:17.188Z,20.90
2019-02-21T17:32:46.262Z,18.30
2019-02-21T17:35:15.173Z,17.30
2019-02-21T17:37:44.546Z,17.83
2019-02-21T17:40:24.363Z,19.83
2019-02-21T17:42:48.141Z,18.37
2019-02-21T17:45:16.788Z,21.87
2019-02-21T17:47:45.397Z,19.03
2019-02-21T17:50:16.116Z,18.80
2019-02-21T17:52:44.721Z,21.37
2019-02-21T17:55:13.935Z,26.53
2019-02-21T17:57:42.894Z,25.60
2019-02-21T18:00:24.225Z,20.57
2019-02-21T18:02:52.824Z,21.30
2019-02-21T18:05:21.570Z,19.70
2019-02-21T18:07:50.173Z,23.43
2019-02-21T18:10:19.199Z,18.50
2019-02-21T18:12:49.451Z,20.77
2019-02-21T18:15:18.460Z,23.57
2019-02-21T18:17:47.562Z,25.60
2019-02-21T18:20:17.084Z,24.03
2019-02-21T18:22:46.166Z,27.47
2019-02-21T18:25:32.738Z,25.63
2019-02-21T18:28:01.340Z,25.33
2019-02-21T18:30:30.362Z,25.90
2019-02-21T18:32:59.010Z,29.17
2019-02-21T18:35:28.212Z,32.60
2019-02-21T18:37:57.480Z,32.93
2019-02-21T18:40:27.854Z,30.40
2019-02-21T18:42:56.400Z,29.53
2019-02-21T18:45:25.049Z,25.47
2019-02-21T18:47:53.709Z,26.43
2019-02-21T18:50:22.286Z,29.60
2019-02-21T18:52:51.070Z,29.97
2019-02-21T18:55:20.627Z,34.20
2019-02-21T18:57:49.272Z,35.27
2019-02-21T19:00:26.026Z,29.30
2019-02-21T19:02:55.281Z,29.07
2019-02-21T19:05:35.014Z,28.40
2019-02-21T19:08:03.987Z,25.37
2019-02-21T19:10:26.025Z,30.30
2019-02-21T19:12:55.210Z,25.50
2019-02-21T19:15:27.105Z,24.57
2019-02-21T19:17:55.727Z,25.43
2019-02-21T19:20:24.542Z,22.87
2019-02-21T19:22:53.353Z,25.97
2019-02-21T19:25:21.917Z,20.83
2019-02-21T19:27:51.153Z,22.87
2019-02-21T19:30:28.956Z,22.93
2019-02-21T19:32:57.537Z,19.60
2019-02-21T19:35:26.237Z,24.67
2019-02-21T19:37:54.849Z,22.90
2019-02-21T19:40:32.343Z,22.00
2019-02-21T19:43:00.958Z,18.43
2019-02-21T19:45:29.621Z,23.43
2019-02-21T19:47:58.200Z,21.77
2019-02-21T19:50:26.932Z,22.90
2019-02-21T19:52:55.847Z,18.63
2019-02-21T19:55:24.535Z,17.43
2019-02-21T19:57:53.123Z,17.50
2019-02-21T20:00:30.649Z,20.93
2019-02-21T20:02:59.231Z,19.03
2019-02-21T20:05:28.262Z,22.10
2019-02-21T20:08:07.816Z,23.13
2019-02-21T20:10:27.144Z,25.70
2019-02-21T20:12:57.452Z,24.97
2019-02-21T20:15:26.084Z,28.10
2019-02-21T20:17:54.678Z,28.93
2019-02-21T20:20:29.128Z,28.50
2019-02-21T20:22:57.727Z,31.80
2019-02-21T20:25:26.304Z,28.90
2019-02-21T20:27:55.240Z,31.60
2019-02-21T20:30:24.732Z,30.60
2019-02-21T20:32:53.290Z,27.23
2019-02-21T20:35:21.860Z,26.03
2019-02-21T20:37:50.460Z,30.70
2019-02-21T20:40:19.023Z,31.83
2019-02-21T20:42:47.624Z,25.73
2019-02-21T20:45:16.192Z,33.80
2019-02-21T20:47:44.787Z,37.27
2019-02-21T20:50:13.496Z,38.67
2019-02-21T20:52:42.093Z,44.93
2019-02-21T20:55:12.003Z,38.27
2019-02-21T20:57:40.593Z,30.33
2019-02-21T21:00:12.174Z,31.97
2019-02-21T21:02:40.768Z,25.67
2019-02-21T21:05:09.510Z,26.60
2019-02-21T21:07:38.109Z,27.10
2019-02-21T21:10:12.675Z,30.97
2019-02-21T21:12:41.272Z,24.80
2019-02-21T21:15:11.685Z,27.67
2019-02-21T21:17:40.285Z,24.77
2019-02-21T21:20:16.409Z,28.33
2019-02-21T21:22:41.609Z,28.43
2019-02-21T21:25:17.676Z,23.97
2019-02-21T21:27:46.349Z,24.20
2019-02-21T21:30:17.136Z,26.73
2019-02-21T21:32:45.730Z,20.50
2019-02-21T21:35:14.374Z,25.50
2019-02-21T21:37:42.964Z,22.93
2019-02-21T21:40:16.397Z,23.43
2019-02-21T21:42:44.978Z,25.07
2019-02-21T21:45:15.961Z,22.07
2019-02-21T21:47:44.560Z,21.30
2019-02-21T21:50:15.573Z,18.93
2019-02-21T21:52:44.173Z,23.20
2019-02-21T21:55:12.816Z,23.57
2019-02-21T21:57:41.428Z,22.13
2019-02-21T22:00:13.078Z,22.67
2019-02-21T22:02:41.672Z,26.70
2019-02-21T22:05:10.301Z,25.20
2019-02-21T22:07:38.872Z,29.57
2019-02-21T22:10:10.540Z,22.83
2019-02-21T22:12:39.119Z,26.57
2019-02-21T22:15:10.860Z,25.30
2019-02-21T22:17:42.061Z,20.80
2019-02-21T22:20:09.735Z,22.37
2019-02-21T22:22:38.319Z,22.30
2019-02-21T22:25:09.841Z,23.80
2019-02-21T22:27:38.419Z,20.90
2019-02-21T22:30:10.416Z,23.27
2019-02-21T22:32:38.994Z,20.60
2019-02-21T22:35:08.416Z,24.30
2019-02-21T22:37:36.988Z,24.77
2019-02-21T22:40:11.227Z,21.80
2019-02-21T22:42:39.871Z,22.90
2019-02-21T22:45:09.708Z,19.03
2019-02-21T22:47:38.287Z,19.77
2019-02-21T22:50:09.992Z,17.97
2019-02-21T22:52:38.561Z,20.77
2019-02-21T22:55:10.183Z,22.53
2019-02-21T22:57:38.468Z,16.97
2019-02-21T23:00:25.572Z,20.77
2019-02-21T23:02:54.216Z,20.43
2019-02-21T23:05:51.801Z,20.30
2019-02-21T23:08:41.428Z,19.97
2019-02-21T23:11:10.439Z,20.73
2019-02-21T23:13:39.109Z,18.20
2019-02-21T23:16:07.767Z,22.63
2019-02-21T23:18:36.424Z,21.27
2019-02-21T23:21:05.466Z,22.13
2019-02-21T23:23:34.059Z,24.43
2019-02-21T23:26:02.629Z,24.47
2019-02-21T23:28:31.220Z,24.13
2019-02-21T23:30:59.787Z,24.93
2019-02-21T23:33:29.352Z,26.57
2019-02-21T23:35:57.925Z,25.83
2019-02-21T23:38:26.516Z,26.50
2019-02-21T23:40:55.085Z,23.27
2019-02-21T23:43:23.682Z,27.03
2019-02-21T23:45:52.295Z,26.00
2019-02-21T23:48:20.820Z,20.60
2019-02-21T23:50:49.417Z,25.50
2019-02-21T23:53:18.004Z,22.80
2019-02-21T23:55:46.593Z,21.17
2019-02-21T23:58:15.172Z,16.90
